createdAt,value
2022-11-18T00:02:57.656Z,99504.63
2022-11-18T00:05:59.270Z,99503.22
2022-11-18T00:09:01.283Z,99500.94
2022-11-18T00:12:21.634Z,99501.84
2022-11-18T00:15:27.575Z,99493.81
2022-11-18T00:18:32.472Z,99488.84
2022-11-18T00:21:34.160Z,99484.53
2022-11-18T00:24:35.853Z,99478.97
2022-11-18T00:27:37.466Z,99478.03
2022-11-18T00:30:39.096Z,99461.47
2022-11-18T00:33:41.238Z,99459.31
2022-11-18T00:36:44.035Z,99469.16
2022-11-18T00:39:45.632Z,99477.06
2022-11-18T00:42:53.750Z,99480.78
2022-11-18T00:45:55.472Z,99487.63
2022-11-18T00:48:57.176Z,99486.09
2022-11-18T00:51:58.779Z,99481.75
2022-11-18T00:55:00.378Z,99480.06
2022-11-18T00:58:02.236Z,99480.97
2022-11-18T01:01:04.577Z,99476.81
2022-11-18T01:04:06.304Z,99474.75
2022-11-18T01:07:07.960Z,99484.97
2022-11-18T01:10:09.662Z,99487.78
2022-11-18T01:13:20.355Z,99488.19
2022-11-18T01:16:26.349Z,99488.81
2022-11-18T01:19:28.028Z,99488.22
2022-11-18T01:22:29.635Z,99484.81
2022-11-18T01:25:31.521Z,99478.75
2022-11-18T01:28:33.332Z,99482.28
2022-11-18T01:31:34.960Z,99483.06
2022-11-18T01:34:36.713Z,99484.00
2022-11-18T01:37:38.729Z,99494.09
2022-11-18T01:40:40.903Z,99500.75
2022-11-18T01:44:01.007Z,99510.16
2022-11-18T01:47:02.944Z,99499.63
2022-11-18T01:50:05.724Z,99502.28
2022-11-18T01:53:12.040Z,99497.97
2022-11-18T01:56:20.527Z,99506.94
2022-11-18T01:59:32.737Z,99494.88
2022-11-18T02:02:37.447Z,99489.13
2022-11-18T02:05:40.607Z,99467.91
2022-11-18T02:08:43.253Z,99455.44
2022-11-18T02:11:50.995Z,99445.38
2022-11-18T02:14:53.217Z,99446.94
2022-11-18T02:18:09.489Z,99436.84
2022-11-18T02:21:39.547Z,99443.28
2022-11-18T02:24:59.111Z,99448.50
2022-11-18T02:28:18.376Z,99444.78
2022-11-18T02:31:44.397Z,99435.94
2022-11-18T02:34:53.413Z,99419.75
2022-11-18T02:38:00.521Z,99418.28
2022-11-18T02:41:07.867Z,99399.56
2022-11-18T02:44:14.401Z,99400.19
2022-11-18T02:47:18.186Z,99397.84
2022-11-18T02:50:25.973Z,99397.13
2022-11-18T02:53:30.760Z,99393.63
2022-11-18T02:56:34.853Z,99392.28
2022-11-18T02:59:36.505Z,99379.59
2022-11-18T03:02:44.309Z,99367.69
2022-11-18T03:06:01.718Z,99352.88
2022-11-18T03:09:12.601Z,99348.63
2022-11-18T03:12:17.191Z,99346.69
2022-11-18T03:15:35.878Z,99343.38
2022-11-18T03:18:44.470Z,99340.13
2022-11-18T03:21:55.711Z,99356.44
2022-11-18T03:25:07.544Z,99381.25
2022-11-18T03:28:17.305Z,99380.06
2022-11-18T03:31:26.310Z,99370.75
2022-11-18T03:34:37.068Z,99379.84
2022-11-18T03:37:41.328Z,99373.44
2022-11-18T03:40:48.589Z,99362.84
2022-11-18T03:43:57.389Z,99360.84
2022-11-18T03:47:09.102Z,99364.75
2022-11-18T03:50:18.660Z,99366.34
2022-11-18T03:53:23.201Z,99371.31
2022-11-18T03:56:35.054Z,99380.00
2022-11-18T03:59:41.301Z,99377.09
2022-11-18T04:02:44.476Z,99370.28
2022-11-18T04:05:50.084Z,99374.91
2022-11-18T04:08:58.184Z,99375.22
2022-11-18T04:12:08.772Z,99359.13
2022-11-18T04:15:11.285Z,99352.50
2022-11-18T04:18:13.169Z,99352.38
2022-11-18T04:21:14.737Z,99352.19
2022-11-18T04:24:16.341Z,99363.19
2022-11-18T04:27:17.920Z,99359.69
2022-11-18T04:30:19.911Z,99358.06
2022-11-18T04:33:21.527Z,99358.50
2022-11-18T04:36:23.310Z,99352.75
2022-11-18T04:39:25.207Z,99365.97
2022-11-18T04:42:27.141Z,99361.75
2022-11-18T04:45:28.732Z,99360.53
2022-11-18T04:48:30.354Z,99371.63
2022-11-18T04:51:31.986Z,99368.69
2022-11-18T04:54:33.640Z,99359.69
2022-11-18T04:57:35.292Z,99368.09
2022-11-18T05:00:36.929Z,99384.84
2022-11-18T05:03:38.550Z,99390.75
2022-11-18T05:06:40.192Z,99395.19
2022-11-18T05:09:41.865Z,99393.56
2022-11-18T05:12:49.469Z,99386.56
2022-11-18T05:15:51.108Z,99368.75
2022-11-18T05:18:52.896Z,99359.00
2022-11-18T05:21:55.237Z,99356.19
2022-11-18T05:24:56.935Z,99358.50
2022-11-18T05:27:58.533Z,99351.38
2022-11-18T05:31:00.478Z,99335.03
2022-11-18T05:34:02.264Z,99343.34
2022-11-18T05:37:03.882Z,99353.03
2022-11-18T05:40:06.283Z,99358.59
2022-11-18T05:43:12.515Z,99356.31
2022-11-18T05:46:14.207Z,99349.63
2022-11-18T05:49:16.414Z,99357.00
2022-11-18T05:52:18.247Z,99352.09
2022-11-18T05:55:23.165Z,99353.28
2022-11-18T05:58:24.932Z,99353.88
2022-11-18T06:01:46.792Z,99359.97
2022-11-18T06:04:59.671Z,99354.06
2022-11-18T06:08:02.285Z,99337.59
2022-11-18T06:11:04.233Z,99345.75
2022-11-18T06:14:11.999Z,99347.78
2022-11-18T06:17:22.532Z,99339.22
2022-11-18T06:20:24.427Z,99342.75
2022-11-18T06:23:33.810Z,99345.31
2022-11-18T06:26:37.367Z,99341.75
2022-11-18T06:29:39.062Z,99350.53
2022-11-18T06:32:40.713Z,99339.53
2022-11-18T06:35:42.965Z,99338.31
2022-11-18T06:38:44.931Z,99336.59
2022-11-18T06:41:46.640Z,99335.31
2022-11-18T06:44:59.327Z,99340.38
2022-11-18T06:48:04.230Z,99353.28
2022-11-18T06:51:06.724Z,99348.97
2022-11-18T06:54:11.005Z,99346.47
2022-11-18T06:57:12.925Z,99337.63
2022-11-18T07:00:15.455Z,99332.78
2022-11-18T07:03:17.097Z,99335.56
2022-11-18T07:06:26.671Z,99335.03
2022-11-18T07:09:28.373Z,99337.69
2022-11-18T07:12:30.149Z,99348.53
2022-11-18T07:15:34.092Z,99343.91
2022-11-18T07:18:37.861Z,99354.00
2022-11-18T07:21:40.835Z,99352.44
2022-11-18T07:24:43.358Z,99346.41
2022-11-18T07:27:46.076Z,99340.31
2022-11-18T07:30:47.718Z,99350.06
2022-11-18T07:33:49.841Z,99349.41
2022-11-18T07:36:51.458Z,99331.66
2022-11-18T07:39:53.146Z,99337.75
2022-11-18T07:42:55.052Z,99337.16
2022-11-18T07:45:56.665Z,99332.66
2022-11-18T07:49:00.234Z,99325.47
2022-11-18T07:52:01.973Z,99321.16
2022-11-18T07:55:03.939Z,99324.25
2022-11-18T07:58:05.567Z,99312.63
2022-11-18T08:01:11.938Z,99300.38
2022-11-18T08:04:13.682Z,99309.31
2022-11-18T08:07:15.369Z,99311.97
2022-11-18T08:10:17.504Z,99308.91
2022-11-18T08:13:23.484Z,99307.25
2022-11-18T08:16:26.424Z,99327.59
2022-11-18T08:19:28.123Z,99329.59
2022-11-18T08:22:29.780Z,99328.69
2022-11-18T08:25:31.424Z,99320.03
2022-11-18T08:28:33.455Z,99311.59
2022-11-18T08:31:35.092Z,99312.97
2022-11-18T08:34:36.728Z,99304.09
2022-11-18T08:37:38.434Z,99289.28
2022-11-18T08:40:45.049Z,99290.38
2022-11-18T08:43:47.064Z,99284.38
2022-11-18T08:46:48.864Z,99286.03
2022-11-18T08:49:53.655Z,99283.41
2022-11-18T08:52:55.344Z,99278.28
2022-11-18T08:55:58.696Z,99281.84
2022-11-18T08:59:00.393Z,99281.41
2022-11-18T09:02:02.135Z,99277.13
2022-11-18T09:05:03.875Z,99274.91
2022-11-18T09:08:05.925Z,99284.22
2022-11-18T09:11:08.691Z,99276.75
2022-11-18T09:17:34.605Z,99263.09
2022-11-18T09:20:36.219Z,99258.59
2022-11-18T09:23:39.137Z,99248.72
2022-11-18T09:26:41.259Z,99246.84
2022-11-18T09:29:42.907Z,99243.94
2022-11-18T09:32:44.533Z,99243.72
2022-11-18T09:35:46.394Z,99226.78
2022-11-18T09:38:51.842Z,99230.53
2022-11-18T09:42:06.535Z,99213.16
2022-11-18T09:45:28.516Z,99203.38
2022-11-18T09:48:49.993Z,99197.78
2022-11-18T09:51:52.718Z,99187.16
2022-11-18T09:54:54.705Z,99186.94
2022-11-18T09:57:58.994Z,99180.03
2022-11-18T10:01:01.809Z,99173.00
2022-11-18T10:04:03.641Z,99161.69
2022-11-18T10:07:41.167Z,99168.81
2022-11-18T10:11:07.801Z,99167.75
2022-11-18T10:14:38.837Z,99144.91
2022-11-18T10:18:03.545Z,99156.44
2022-11-18T10:21:13.829Z,99152.56
2022-11-18T10:24:21.129Z,99151.59
2022-11-18T10:27:33.911Z,99153.59
2022-11-18T10:30:35.515Z,99153.78
2022-11-18T10:33:38.521Z,99157.31
2022-11-18T10:36:40.227Z,99148.19
2022-11-18T10:39:59.595Z,99143.84
2022-11-18T10:43:01.289Z,99152.09
2022-11-18T10:46:41.735Z,99148.63
2022-11-18T10:49:44.326Z,99133.28
2022-11-18T10:52:53.449Z,99125.28
2022-11-18T10:56:03.215Z,99135.28
2022-11-18T10:59:04.971Z,99129.13
2022-11-18T11:02:38.596Z,99121.13
2022-11-18T11:05:40.417Z,99120.91
2022-11-18T11:09:00.292Z,99114.09
2022-11-18T11:12:14.751Z,99101.03
2022-11-18T11:15:39.670Z,99106.31
2022-11-18T11:18:41.721Z,99101.56
2022-11-18T11:21:43.355Z,99097.00
2022-11-18T11:24:45.598Z,99101.47
2022-11-18T11:28:16.926Z,99094.78
2022-11-18T11:32:03.109Z,99087.09
2022-11-18T11:35:42.218Z,99088.50
2022-11-18T11:39:04.691Z,99090.50
2022-11-18T11:42:31.518Z,99081.38
2022-11-18T11:46:03.407Z,99074.63
2022-11-18T11:49:27.881Z,99067.03
2022-11-18T11:53:11.679Z,99061.19
2022-11-18T11:56:44.807Z,99061.31
2022-11-18T12:00:00.207Z,99054.19
2022-11-18T12:03:38.301Z,99047.75
2022-11-18T12:06:42.608Z,99044.53
2022-11-18T12:10:02.900Z,99050.66
2022-11-18T12:13:22.656Z,99037.16
2022-11-18T12:16:43.617Z,99031.53
2022-11-18T12:19:45.310Z,99022.78
2022-11-18T12:23:10.584Z,99032.84
2022-11-18T12:26:17.424Z,99021.84
2022-11-18T12:29:19.289Z,99020.63
2022-11-18T12:32:26.415Z,99020.03
2022-11-18T12:35:31.287Z,99021.47
2022-11-18T12:38:50.740Z,99023.78
2022-11-18T12:42:41.510Z,99031.38
2022-11-18T12:45:46.073Z,99024.13
2022-11-18T12:48:48.005Z,99014.47
2022-11-18T12:51:57.555Z,99013.00
2022-11-18T12:55:13.304Z,99003.50
2022-11-18T12:58:26.026Z,99004.03
2022-11-18T13:01:30.962Z,98995.78
2022-11-18T13:04:32.781Z,98993.25
2022-11-18T13:08:01.916Z,99003.88
2022-11-18T13:11:48.869Z,98994.09
2022-11-18T13:15:20.460Z,98986.28
2022-11-18T13:18:22.388Z,98983.38
2022-11-18T13:21:45.853Z,98982.28
2022-11-18T13:24:49.875Z,98987.47
2022-11-18T13:28:09.172Z,98987.81
2022-11-18T13:31:42.769Z,98988.94
2022-11-18T13:34:51.855Z,98992.91
2022-11-18T13:38:00.332Z,98985.91
2022-11-18T13:41:36.079Z,98984.38
2022-11-18T13:44:46.515Z,98979.44
2022-11-18T13:47:52.620Z,98988.03
2022-11-18T13:50:57.307Z,98981.63
2022-11-18T13:53:59.077Z,98986.47
2022-11-18T13:57:00.877Z,98985.56
2022-11-18T14:00:07.063Z,98985.22
2022-11-18T14:03:30.005Z,98983.19
2022-11-18T14:06:37.475Z,98987.56
2022-11-18T14:09:58.516Z,98984.44
2022-11-18T14:13:01.609Z,98994.34
2022-11-18T14:16:23.420Z,98992.66
2022-11-18T14:19:37.673Z,98990.44
2022-11-18T14:22:42.829Z,98999.84
2022-11-18T14:25:45.241Z,99002.69
2022-11-18T14:28:55.217Z,99003.22
2022-11-18T14:32:14.906Z,99003.44
2022-11-18T14:35:17.372Z,98998.84
2022-11-18T14:41:58.448Z,99013.03
2022-11-18T14:45:00.066Z,99017.78
2022-11-18T14:48:01.805Z,99017.69
2022-11-18T14:51:03.623Z,99026.38
2022-11-18T14:54:05.246Z,99030.88
2022-11-18T14:57:06.909Z,99029.09
2022-11-18T15:00:14.192Z,99026.66
2022-11-18T15:03:16.298Z,99039.28
2022-11-18T15:06:20.614Z,99035.53
2022-11-18T15:09:22.244Z,99020.56
2022-11-18T15:12:27.310Z,99023.53
2022-11-18T15:15:29.009Z,99033.31
2022-11-18T15:18:33.401Z,99028.72
2022-11-18T15:21:35.135Z,99023.78
2022-11-18T15:24:36.899Z,99018.41
2022-11-18T15:27:39.013Z,99037.53
2022-11-18T15:30:41.821Z,99042.38
2022-11-18T15:33:44.341Z,99042.63
2022-11-18T15:36:46.373Z,99038.78
2022-11-18T15:39:51.047Z,99040.31
2022-11-18T15:42:52.670Z,99042.09
2022-11-18T15:45:58.725Z,99029.44
2022-11-18T15:49:00.760Z,99034.28
2022-11-18T15:52:02.504Z,99038.00
2022-11-18T15:55:07.981Z,99036.03
2022-11-18T15:58:09.912Z,99024.28
2022-11-18T16:01:11.989Z,99010.91
2022-11-18T16:04:16.733Z,99019.72
2022-11-18T16:07:18.821Z,99021.38
2022-11-18T16:10:53.818Z,99017.63
2022-11-18T16:14:05.722Z,99021.84
2022-11-18T16:17:07.355Z,99027.13
2022-11-18T16:20:09.545Z,99031.19
2022-11-18T16:23:11.300Z,99038.78
2022-11-18T16:26:12.985Z,99046.00
2022-11-18T16:29:17.250Z,99038.13
2022-11-18T16:32:19.382Z,99052.63
2022-11-18T16:35:21.107Z,99044.38
2022-11-18T16:38:22.766Z,99058.09
2022-11-18T16:41:33.639Z,99067.53
2022-11-18T16:44:36.008Z,99058.97
2022-11-18T16:47:38.473Z,99073.78
2022-11-18T16:50:40.179Z,99085.44
2022-11-18T16:53:41.769Z,99088.50
2022-11-18T16:56:43.984Z,99087.50
2022-11-18T16:59:45.838Z,99097.84
2022-11-18T17:02:47.454Z,99096.84
2022-11-18T17:05:49.120Z,99110.38
2022-11-18T17:08:51.204Z,99109.03
2022-11-18T17:11:54.663Z,99116.84
2022-11-18T17:14:56.314Z,99118.53
2022-11-18T17:17:57.962Z,99123.44
2022-11-18T17:21:18.178Z,99116.72
2022-11-18T17:24:22.699Z,99127.66
2022-11-18T17:27:24.584Z,99123.47
2022-11-18T17:30:26.412Z,99132.34
2022-11-18T17:33:28.183Z,99133.44
2022-11-18T17:36:29.860Z,99147.97
2022-11-18T17:39:32.096Z,99151.69
2022-11-18T17:42:33.883Z,99151.88
2022-11-18T17:45:35.539Z,99153.28
2022-11-18T17:48:37.493Z,99163.56
2022-11-18T17:51:39.205Z,99161.91
2022-11-18T17:54:41.045Z,99154.53
2022-11-18T17:57:42.852Z,99164.28
2022-11-18T18:00:44.571Z,99167.72
2022-11-18T18:03:46.491Z,99179.47
2022-11-18T18:06:51.189Z,99175.88
2022-11-18T18:09:53.186Z,99187.03
2022-11-18T18:13:15.433Z,99191.78
2022-11-18T18:16:17.645Z,99185.13
2022-11-18T18:19:21.766Z,99207.41
2022-11-18T18:22:23.631Z,99192.94
2022-11-18T18:25:25.520Z,99198.69
2022-11-18T18:28:27.095Z,99198.41
2022-11-18T18:31:32.680Z,99200.03
2022-11-18T18:34:34.552Z,99194.50
2022-11-18T18:37:36.619Z,99206.75
2022-11-18T18:40:38.308Z,99228.84
2022-11-18T18:43:40.457Z,99231.47
2022-11-18T18:46:42.258Z,99245.38
2022-11-18T18:49:43.986Z,99253.13
2022-11-18T18:52:48.316Z,99254.72
2022-11-18T18:55:55.879Z,99260.09
2022-11-18T18:58:57.879Z,99276.13
2022-11-18T19:02:00.331Z,99285.13
2022-11-18T19:05:02.180Z,99287.13
2022-11-18T19:08:05.454Z,99282.38
2022-11-18T19:11:07.609Z,99300.44
2022-11-18T19:14:13.048Z,99304.00
2022-11-18T19:17:14.691Z,99314.66
2022-11-18T19:20:36.864Z,99321.63
2022-11-18T19:23:39.384Z,99332.13
2022-11-18T19:26:41.225Z,99328.91
2022-11-18T19:29:45.722Z,99331.06
2022-11-18T19:32:48.796Z,99340.47
2022-11-18T19:35:50.764Z,99342.34
2022-11-18T19:38:52.431Z,99334.63
2022-11-18T19:41:54.335Z,99340.31
2022-11-18T19:44:56.319Z,99347.13
2022-11-18T19:48:00.915Z,99351.91
2022-11-18T19:51:10.914Z,99364.09
2022-11-18T19:54:12.696Z,99362.72
2022-11-18T19:57:14.764Z,99371.50
2022-11-18T20:00:18.369Z,99378.78
2022-11-18T20:03:20.044Z,99394.19
2022-11-18T20:06:22.529Z,99396.22
2022-11-18T20:09:25.436Z,99402.53
2022-11-18T20:12:28.507Z,99423.38
2022-11-18T20:15:30.305Z,99441.44
2022-11-18T20:18:32.642Z,99449.75
2022-11-18T20:21:34.545Z,99453.00
2022-11-18T20:24:36.410Z,99467.81
2022-11-18T20:27:38.186Z,99458.69
2022-11-18T20:30:40.175Z,99473.31
2022-11-18T20:33:43.981Z,99478.84
2022-11-18T20:36:47.045Z,99494.28
2022-11-18T20:39:48.987Z,99495.34
2022-11-18T20:43:09.468Z,99497.53
2022-11-18T20:46:14.672Z,99510.16
2022-11-18T20:49:20.842Z,99520.19
2022-11-18T20:52:23.261Z,99530.84
2022-11-18T20:55:25.039Z,99533.47
2022-11-18T20:58:26.664Z,99535.94
2022-11-18T21:01:29.864Z,99537.91
2022-11-18T21:04:31.645Z,99546.09
2022-11-18T21:07:33.767Z,99554.88
2022-11-18T21:10:36.712Z,99560.13
2022-11-18T21:13:57.967Z,99564.44
2022-11-18T21:17:02.798Z,99567.22
2022-11-18T21:20:25.188Z,99572.06
2022-11-18T21:23:27.014Z,99569.91
2022-11-18T21:26:31.127Z,99573.91
2022-11-18T21:29:33.478Z,99591.50
2022-11-18T21:32:35.091Z,99590.88
2022-11-18T21:35:36.761Z,99599.50
2022-11-18T21:38:38.762Z,99589.66
2022-11-18T21:41:40.756Z,99588.28
2022-11-18T21:44:42.649Z,99586.38
2022-11-18T21:47:44.818Z,99597.84
2022-11-18T21:50:46.476Z,99600.25
2022-11-18T21:53:50.485Z,99594.09
2022-11-18T21:56:53.631Z,99610.91
2022-11-18T21:59:55.892Z,99606.28
2022-11-18T22:02:57.472Z,99628.50
2022-11-18T22:06:01.155Z,99632.91
2022-11-18T22:09:04.121Z,99646.19
2022-11-18T22:12:07.010Z,99649.13
2022-11-18T22:15:09.787Z,99646.44
2022-11-18T22:18:11.498Z,99649.53
2022-11-18T22:21:15.557Z,99651.75
2022-11-18T22:24:17.180Z,99650.84
2022-11-18T22:27:18.880Z,99649.97
2022-11-18T22:30:20.667Z,99661.34
2022-11-18T22:33:22.303Z,99675.34
2022-11-18T22:36:26.444Z,99677.00
2022-11-18T22:39:28.155Z,99681.78
2022-11-18T22:42:47.945Z,99686.00
2022-11-18T22:45:49.556Z,99684.94
2022-11-18T22:48:51.365Z,99692.94
2022-11-18T22:51:52.988Z,99686.19
2022-11-18T22:54:54.642Z,99692.50
2022-11-18T22:57:56.297Z,99689.94
2022-11-18T23:01:03.552Z,99697.94
2022-11-18T23:04:05.314Z,99705.00
2022-11-18T23:07:08.198Z,99705.78
2022-11-18T23:10:10.075Z,99711.44
2022-11-18T23:13:30.317Z,99709.69
2022-11-18T23:16:33.698Z,99720.09
2022-11-18T23:19:36.919Z,99721.16
2022-11-18T23:22:38.600Z,99718.84
2022-11-18T23:25:40.276Z,99738.72
2022-11-18T23:28:42.717Z,99733.47
2022-11-18T23:31:44.947Z,99752.78
2022-11-18T23:34:46.933Z,99753.19
2022-11-18T23:37:48.990Z,99760.19
2022-11-18T23:41:02.163Z,99755.41
2022-11-18T23:44:04.530Z,99760.50
2022-11-18T23:47:06.139Z,99766.63
2022-11-18T23:50:08.077Z,99769.25
2022-11-18T23:53:09.696Z,99769.34
2022-11-18T23:56:13.664Z,99773.03
2022-11-18T23:59:15.224Z,99777.59
